sensor_id;sensor_type;location;lat;lon;timestamp;temperature;humidity
3268;DHT22;1646;52.450;13.326;2022-07-18T00:03:54;19.40;96.80
3268;DHT22;1646;52.450;13.326;2022-07-18T00:08:52;19.40;96.70
3268;DHT22;1646;52.450;13.326;2022-07-18T00:13:51;19.30;97.00
3268;DHT22;1646;52.450;13.326;2022-07-18T00:18:49;19.40;98.00
3268;DHT22;1646;52.450;13.326;2022-07-18T00:23:49;19.50;97.70
3268;DHT22;1646;52.450;13.326;2022-07-18T00:28:47;19.50;97.80
3268;DHT22;1646;52.450;13.326;2022-07-18T00:33:45;19.50;98.10
3268;DHT22;1646;52.450;13.326;2022-07-18T00:38:43;19.50;98.90
3268;DHT22;1646;52.450;13.326;2022-07-18T00:43:43;19.50;98.60
3268;DHT22;1646;52.450;13.326;2022-07-18T00:48:44;19.50;98.80
3268;DHT22;1646;52.450;13.326;2022-07-18T00:53:43;19.50;99.20
3268;DHT22;1646;52.450;13.326;2022-07-18T00:58:44;19.50;99.20
3268;DHT22;1646;52.450;13.326;2022-07-18T01:03:48;19.40;99.30
3268;DHT22;1646;52.450;13.326;2022-07-18T01:08:46;19.30;99.70
3268;DHT22;1646;52.450;13.326;2022-07-18T01:13:46;19.30;99.70
3268;DHT22;1646;52.450;13.326;2022-07-18T01:18:45;19.20;99.90
3268;DHT22;1646;52.450;13.326;2022-07-18T01:23:44;19.10;99.90
3268;DHT22;1646;52.450;13.326;2022-07-18T01:28:43;19.10;99.90
3268;DHT22;1646;52.450;13.326;2022-07-18T01:33:41;19.00;99.90
3268;DHT22;1646;52.450;13.326;2022-07-18T01:38:39;18.90;99.90
3268;DHT22;1646;52.450;13.326;2022-07-18T01:43:41;18.90;99.90
3268;DHT22;1646;52.450;13.326;2022-07-18T01:48:40;18.80;99.90
3268;DHT22;1646;52.450;13.326;2022-07-18T01:53:39;18.70;99.90
3268;DHT22;1646;52.450;13.326;2022-07-18T01:58:37;18.60;99.90
3268;DHT22;1646;52.450;13.326;2022-07-18T02:03:36;18.60;99.90
3268;DHT22;1646;52.450;13.326;2022-07-18T02:08:35;18.60;99.90
3268;DHT22;1646;52.450;13.326;2022-07-18T02:13:33;18.40;99.90
3268;DHT22;1646;52.450;13.326;2022-07-18T02:18:31;18.40;99.90
3268;DHT22;1646;52.450;13.326;2022-07-18T02:23:37;18.30;99.90
3268;DHT22;1646;52.450;13.326;2022-07-18T02:28:36;18.20;99.90
3268;DHT22;1646;52.450;13.326;2022-07-18T02:33:34;18.20;99.90
3268;DHT22;1646;52.450;13.326;2022-07-18T02:38:32;18.10;99.90
3268;DHT22;1646;52.450;13.326;2022-07-18T02:43:32;18.00;99.90
3268;DHT22;1646;52.450;13.326;2022-07-18T02:48:30;17.90;99.90
3268;DHT22;1646;52.450;13.326;2022-07-18T02:53:28;17.80;99.90
3268;DHT22;1646;52.450;13.326;2022-07-18T02:58:26;17.70;99.90
3268;DHT22;1646;52.450;13.326;2022-07-18T03:03:25;17.60;99.90
3268;DHT22;1646;52.450;13.326;2022-07-18T03:08:24;17.60;99.90
3268;DHT22;1646;52.450;13.326;2022-07-18T03:13:22;17.60;99.90
3268;DHT22;1646;52.450;13.326;2022-07-18T03:18:20;17.50;99.90
3268;DHT22;1646;52.450;13.326;2022-07-18T03:23:20;17.50;99.90
3268;DHT22;1646;52.450;13.326;2022-07-18T03:28:18;17.50;99.90
3268;DHT22;1646;52.450;13.326;2022-07-18T03:33:16;17.50;99.90
3268;DHT22;1646;52.450;13.326;2022-07-18T03:38:14;17.50;99.90
3268;DHT22;1646;52.450;13.326;2022-07-18T03:43:14;17.40;99.90
3268;DHT22;1646;52.450;13.326;2022-07-18T03:48:12;17.40;99.90
3268;DHT22;1646;52.450;13.326;2022-07-18T03:53:10;17.40;99.90
3268;DHT22;1646;52.450;13.326;2022-07-18T03:58:08;17.40;99.90
3268;DHT22;1646;52.450;13.326;2022-07-18T04:03:09;17.40;99.90
3268;DHT22;1646;52.450;13.326;2022-07-18T04:08:07;17.40;99.90
3268;DHT22;1646;52.450;13.326;2022-07-18T04:13:05;17.40;99.90
3268;DHT22;1646;52.450;13.326;2022-07-18T04:18:04;17.50;99.90
3268;DHT22;1646;52.450;13.326;2022-07-18T04:23:07;17.50;99.90
3268;DHT22;1646;52.450;13.326;2022-07-18T04:28:06;17.70;99.90
3268;DHT22;1646;52.450;13.326;2022-07-18T04:33:07;17.80;99.90
3268;DHT22;1646;52.450;13.326;2022-07-18T04:38:09;17.80;99.90
3268;DHT22;1646;52.450;13.326;2022-07-18T04:43:08;17.80;99.90
3268;DHT22;1646;52.450;13.326;2022-07-18T04:48:06;17.90;99.90
3268;DHT22;1646;52.450;13.326;2022-07-18T04:53:04;17.90;99.90
3268;DHT22;1646;52.450;13.326;2022-07-18T04:58:04;18.00;99.90
3268;DHT22;1646;52.450;13.326;2022-07-18T05:03:02;18.10;99.90
3268;DHT22;1646;52.450;13.326;2022-07-18T05:08:01;18.30;99.90
3268;DHT22;1646;52.450;13.326;2022-07-18T05:12:59;18.60;99.90
3268;DHT22;1646;52.450;13.326;2022-07-18T05:18:03;18.80;99.90
3268;DHT22;1646;52.450;13.326;2022-07-18T05:23:01;19.10;99.90
3268;DHT22;1646;52.450;13.326;2022-07-18T05:27:59;19.30;99.90
3268;DHT22;1646;52.450;13.326;2022-07-18T05:32:58;19.50;99.90
3268;DHT22;1646;52.450;13.326;2022-07-18T05:37:56;19.50;99.90
3268;DHT22;1646;52.450;13.326;2022-07-18T05:42:54;19.70;99.90
3268;DHT22;1646;52.450;13.326;2022-07-18T05:47:53;19.80;99.90
3268;DHT22;1646;52.450;13.326;2022-07-18T05:52:52;20.10;99.90
3268;DHT22;1646;52.450;13.326;2022-07-18T05:57:51;20.40;99.90
3268;DHT22;1646;52.450;13.326;2022-07-18T06:02:50;20.60;99.90
3268;DHT22;1646;52.450;13.326;2022-07-18T06:07:48;20.60;99.90
3268;DHT22;1646;52.450;13.326;2022-07-18T06:12:48;20.80;99.90
3268;DHT22;1646;52.450;13.326;2022-07-18T06:17:47;21.00;99.90
3268;DHT22;1646;52.450;13.326;2022-07-18T06:22:45;21.10;99.90
3268;DHT22;1646;52.450;13.326;2022-07-18T06:27:43;21.30;99.90
3268;DHT22;1646;52.450;13.326;2022-07-18T06:32:43;21.40;99.90
3268;DHT22;1646;52.450;13.326;2022-07-18T06:37:41;21.50;99.90
3268;DHT22;1646;52.450;13.326;2022-07-18T06:42:39;21.50;99.90
3268;DHT22;1646;52.450;13.326;2022-07-18T06:47:37;21.60;99.90
3268;DHT22;1646;52.450;13.326;2022-07-18T06:52:37;21.90;99.90
3268;DHT22;1646;52.450;13.326;2022-07-18T06:57:36;22.00;99.90
3268;DHT22;1646;52.450;13.326;2022-07-18T07:02:34;22.20;99.90
3268;DHT22;1646;52.450;13.326;2022-07-18T07:07:32;22.30;99.90
3268;DHT22;1646;52.450;13.326;2022-07-18T07:12:38;22.70;99.90
3268;DHT22;1646;52.450;13.326;2022-07-18T07:17:36;23.00;99.90
3268;DHT22;1646;52.450;13.326;2022-07-18T07:22:41;23.20;99.90
3268;DHT22;1646;52.450;13.326;2022-07-18T07:27:41;23.50;99.90
3268;DHT22;1646;52.450;13.326;2022-07-18T07:32:41;23.70;99.90
3268;DHT22;1646;52.450;13.326;2022-07-18T07:37:41;23.70;99.90
3268;DHT22;1646;52.450;13.326;2022-07-18T07:42:42;23.70;99.90
3268;DHT22;1646;52.450;13.326;2022-07-18T07:47:40;23.90;99.90
3268;DHT22;1646;52.450;13.326;2022-07-18T07:52:38;24.10;99.60
3268;DHT22;1646;52.450;13.326;2022-07-18T07:57:37;24.20;99.90
3268;DHT22;1646;52.450;13.326;2022-07-18T08:02:39;24.50;99.00
3268;DHT22;1646;52.450;13.326;2022-07-18T08:07:54;24.60;97.80
3268;DHT22;1646;52.450;13.326;2022-07-18T08:12:53;24.60;96.00
3268;DHT22;1646;52.450;13.326;2022-07-18T08:17:52;24.60;95.70
3268;DHT22;1646;52.450;13.326;2022-07-18T08:22:58;24.80;96.10
3268;DHT22;1646;52.450;13.326;2022-07-18T08:27:57;25.10;96.00
3268;DHT22;1646;52.450;13.326;2022-07-18T08:32:57;25.50;94.00
3268;DHT22;1646;52.450;13.326;2022-07-18T08:37:57;25.50;93.90
3268;DHT22;1646;52.450;13.326;2022-07-18T08:42:56;25.40;89.80
3268;DHT22;1646;52.450;13.326;2022-07-18T08:48:16;25.40;87.30
3268;DHT22;1646;52.450;13.326;2022-07-18T08:53:16;25.60;88.60
3268;DHT22;1646;52.450;13.326;2022-07-18T08:58:14;25.70;87.50
3268;DHT22;1646;52.450;13.326;2022-07-18T09:03:35;26.10;88.80
3268;DHT22;1646;52.450;13.326;2022-07-18T09:08:33;26.40;87.90
3268;DHT22;1646;52.450;13.326;2022-07-18T09:13:37;26.70;85.30
3268;DHT22;1646;52.450;13.326;2022-07-18T09:18:38;26.80;81.00
3268;DHT22;1646;52.450;13.326;2022-07-18T09:23:39;27.00;78.70
3268;DHT22;1646;52.450;13.326;2022-07-18T09:28:46;27.50;81.80
3268;DHT22;1646;52.450;13.326;2022-07-18T09:34:06;28.00;77.20
3268;DHT22;1646;52.450;13.326;2022-07-18T09:39:18;28.40;72.20
3268;DHT22;1646;52.450;13.326;2022-07-18T09:44:18;29.00;73.30
3268;DHT22;1646;52.450;13.326;2022-07-18T09:49:18;29.20;69.50
3268;DHT22;1646;52.450;13.326;2022-07-18T09:54:16;29.20;71.70
3268;DHT22;1646;52.450;13.326;2022-07-18T09:59:22;29.60;65.10
3268;DHT22;1646;52.450;13.326;2022-07-18T10:04:21;29.30;65.00
3268;DHT22;1646;52.450;13.326;2022-07-18T10:09:20;29.50;68.00
3268;DHT22;1646;52.450;13.326;2022-07-18T10:14:18;29.20;63.20
3268;DHT22;1646;52.450;13.326;2022-07-18T10:19:16;29.00;66.00
3268;DHT22;1646;52.450;13.326;2022-07-18T10:24:17;29.10;60.70
3268;DHT22;1646;52.450;13.326;2022-07-18T10:29:16;29.60;61.20
3268;DHT22;1646;52.450;13.326;2022-07-18T10:34:28;29.80;61.10
3268;DHT22;1646;52.450;13.326;2022-07-18T10:39:37;29.90;60.20
3268;DHT22;1646;52.450;13.326;2022-07-18T10:44:36;30.00;60.00
3268;DHT22;1646;52.450;13.326;2022-07-18T10:50:08;30.10;59.30
3268;DHT22;1646;52.450;13.326;2022-07-18T10:55:29;30.40;60.30
3268;DHT22;1646;52.450;13.326;2022-07-18T11:00:28;30.50;59.10
3268;DHT22;1646;52.450;13.326;2022-07-18T11:05:34;30.30;57.60
3268;DHT22;1646;52.450;13.326;2022-07-18T11:11:10;30.30;58.20
3268;DHT22;1646;52.450;13.326;2022-07-18T11:16:11;30.10;58.60
3268;DHT22;1646;52.450;13.326;2022-07-18T11:21:16;30.70;57.40
3268;DHT22;1646;52.450;13.326;2022-07-18T11:26:16;31.50;57.30
3268;DHT22;1646;52.450;13.326;2022-07-18T11:31:19;31.40;56.90
3268;DHT22;1646;52.450;13.326;2022-07-18T11:36:19;31.20;56.80
3268;DHT22;1646;52.450;13.326;2022-07-18T11:41:19;31.20;56.30
3268;DHT22;1646;52.450;13.326;2022-07-18T11:46:20;31.50;56.80
3268;DHT22;1646;52.450;13.326;2022-07-18T11:51:20;31.90;55.90
3268;DHT22;1646;52.450;13.326;2022-07-18T11:56:21;31.10;55.10
3268;DHT22;1646;52.450;13.326;2022-07-18T12:01:20;30.70;55.80
3268;DHT22;1646;52.450;13.326;2022-07-18T12:06:19;30.70;56.00
3268;DHT22;1646;52.450;13.326;2022-07-18T12:11:26;30.80;56.20
3268;DHT22;1646;52.450;13.326;2022-07-18T12:16:27;31.10;54.60
3268;DHT22;1646;52.450;13.326;2022-07-18T12:21:43;30.90;55.00
3268;DHT22;1646;52.450;13.326;2022-07-18T12:26:43;31.10;53.70
3268;DHT22;1646;52.450;13.326;2022-07-18T12:31:45;31.10;55.40
3268;DHT22;1646;52.450;13.326;2022-07-18T12:36:51;31.60;54.80
3268;DHT22;1646;52.450;13.326;2022-07-18T12:41:59;31.80;53.30
3268;DHT22;1646;52.450;13.326;2022-07-18T12:46:57;31.10;53.30
3268;DHT22;1646;52.450;13.326;2022-07-18T12:51:55;30.80;54.60
3268;DHT22;1646;52.450;13.326;2022-07-18T12:56:53;31.00;54.80
3268;DHT22;1646;52.450;13.326;2022-07-18T13:01:53;30.70;54.20
3268;DHT22;1646;52.450;13.326;2022-07-18T13:06:51;30.60;54.20
3268;DHT22;1646;52.450;13.326;2022-07-18T13:11:49;30.50;54.30
3268;DHT22;1646;52.450;13.326;2022-07-18T13:16:47;30.70;54.80
3268;DHT22;1646;52.450;13.326;2022-07-18T13:21:48;31.00;55.30
3268;DHT22;1646;52.450;13.326;2022-07-18T13:26:46;30.80;53.80
3268;DHT22;1646;52.450;13.326;2022-07-18T13:31:49;30.80;54.70
3268;DHT22;1646;52.450;13.326;2022-07-18T13:36:51;30.70;54.20
3268;DHT22;1646;52.450;13.326;2022-07-18T13:41:49;30.50;54.30
3268;DHT22;1646;52.450;13.326;2022-07-18T13:46:48;30.40;55.20
3268;DHT22;1646;52.450;13.326;2022-07-18T13:51:46;30.30;55.00
3268;DHT22;1646;52.450;13.326;2022-07-18T13:56:46;30.50;55.10
3268;DHT22;1646;52.450;13.326;2022-07-18T14:01:44;30.50;53.70
3268;DHT22;1646;52.450;13.326;2022-07-18T14:06:43;30.30;53.90
3268;DHT22;1646;52.450;13.326;2022-07-18T14:11:41;30.30;55.20
3268;DHT22;1646;52.450;13.326;2022-07-18T14:16:40;30.60;54.30
3268;DHT22;1646;52.450;13.326;2022-07-18T14:21:38;30.90;55.20
3268;DHT22;1646;52.450;13.326;2022-07-18T14:26:36;31.30;54.30
3268;DHT22;1646;52.450;13.326;2022-07-18T14:31:34;31.70;54.00
3268;DHT22;1646;52.450;13.326;2022-07-18T14:36:34;32.10;53.30
3268;DHT22;1646;52.450;13.326;2022-07-18T14:41:32;32.10;53.60
3268;DHT22;1646;52.450;13.326;2022-07-18T14:46:30;32.10;52.40
3268;DHT22;1646;52.450;13.326;2022-07-18T14:51:29;32.00;52.70
3268;DHT22;1646;52.450;13.326;2022-07-18T14:56:28;32.10;52.80
3268;DHT22;1646;52.450;13.326;2022-07-18T15:01:26;32.00;52.30
3268;DHT22;1646;52.450;13.326;2022-07-18T15:06:25;31.50;52.20
3268;DHT22;1646;52.450;13.326;2022-07-18T15:11:23;31.10;53.00
3268;DHT22;1646;52.450;13.326;2022-07-18T15:16:23;31.10;52.90
3268;DHT22;1646;52.450;13.326;2022-07-18T15:21:21;31.20;53.00
3268;DHT22;1646;52.450;13.326;2022-07-18T15:26:19;31.10;52.80
3268;DHT22;1646;52.450;13.326;2022-07-18T15:31:17;30.90;53.10
3268;DHT22;1646;52.450;13.326;2022-07-18T15:36:16;30.80;52.70
3268;DHT22;1646;52.450;13.326;2022-07-18T15:41:15;30.80;53.00
3268;DHT22;1646;52.450;13.326;2022-07-18T15:46:16;31.00;53.00
3268;DHT22;1646;52.450;13.326;2022-07-18T15:51:17;31.00;52.60
3268;DHT22;1646;52.450;13.326;2022-07-18T15:56:15;31.00;53.10
3268;DHT22;1646;52.450;13.326;2022-07-18T16:01:14;31.10;52.70
3268;DHT22;1646;52.450;13.326;2022-07-18T16:06:12;31.10;52.90
3268;DHT22;1646;52.450;13.326;2022-07-18T16:11:11;31.20;52.40
3268;DHT22;1646;52.450;13.326;2022-07-18T16:16:09;31.10;52.30
3268;DHT22;1646;52.450;13.326;2022-07-18T16:21:07;31.10;52.30
3268;DHT22;1646;52.450;13.326;2022-07-18T16:26:06;30.80;52.40
3268;DHT22;1646;52.450;13.326;2022-07-18T16:31:06;30.80;53.70
3268;DHT22;1646;52.450;13.326;2022-07-18T16:36:05;30.90;54.20
3268;DHT22;1646;52.450;13.326;2022-07-18T16:41:05;30.90;53.10
3268;DHT22;1646;52.450;13.326;2022-07-18T16:46:05;30.90;53.50
3268;DHT22;1646;52.450;13.326;2022-07-18T16:51:05;30.90;55.20
3268;DHT22;1646;52.450;13.326;2022-07-18T16:56:04;30.70;53.00
3268;DHT22;1646;52.450;13.326;2022-07-18T17:01:06;30.60;54.80
3268;DHT22;1646;52.450;13.326;2022-07-18T17:06:05;30.40;53.10
3268;DHT22;1646;52.450;13.326;2022-07-18T17:11:04;30.40;53.90
3268;DHT22;1646;52.450;13.326;2022-07-18T17:16:02;30.50;53.90
3268;DHT22;1646;52.450;13.326;2022-07-18T17:21:03;30.50;54.20
3268;DHT22;1646;52.450;13.326;2022-07-18T17:26:01;30.40;54.20
3268;DHT22;1646;52.450;13.326;2022-07-18T17:31:03;30.50;56.20
3268;DHT22;1646;52.450;13.326;2022-07-18T17:36:04;30.60;53.70
3268;DHT22;1646;52.450;13.326;2022-07-18T17:41:03;30.60;54.30
3268;DHT22;1646;52.450;13.326;2022-07-18T17:46:06;30.50;53.20
3268;DHT22;1646;52.450;13.326;2022-07-18T17:51:07;30.40;54.90
3268;DHT22;1646;52.450;13.326;2022-07-18T17:56:06;30.20;55.50
3268;DHT22;1646;52.450;13.326;2022-07-18T18:01:05;30.10;56.80
3268;DHT22;1646;52.450;13.326;2022-07-18T18:06:03;30.00;57.00
3268;DHT22;1646;52.450;13.326;2022-07-18T18:11:03;30.00;56.40
3268;DHT22;1646;52.450;13.326;2022-07-18T18:16:02;29.90;58.30
3268;DHT22;1646;52.450;13.326;2022-07-18T18:21:00;29.90;59.30
3268;DHT22;1646;52.450;13.326;2022-07-18T18:25:58;29.80;59.70
3268;DHT22;1646;52.450;13.326;2022-07-18T18:30:58;29.60;59.50
3268;DHT22;1646;52.450;13.326;2022-07-18T18:35:56;29.30;60.90
3268;DHT22;1646;52.450;13.326;2022-07-18T18:40:54;29.10;61.30
3268;DHT22;1646;52.450;13.326;2022-07-18T18:45:52;28.80;61.90
3268;DHT22;1646;52.450;13.326;2022-07-18T18:50:51;28.50;62.50
3268;DHT22;1646;52.450;13.326;2022-07-18T18:55:49;28.20;61.80
3268;DHT22;1646;52.450;13.326;2022-07-18T19:00:47;28.00;63.60
3268;DHT22;1646;52.450;13.326;2022-07-18T19:05:46;27.80;63.80
3268;DHT22;1646;52.450;13.326;2022-07-18T19:10:45;27.60;64.50
3268;DHT22;1646;52.450;13.326;2022-07-18T19:15:43;27.50;65.70
3268;DHT22;1646;52.450;13.326;2022-07-18T19:20:41;27.30;65.90
3268;DHT22;1646;52.450;13.326;2022-07-18T19:25:40;27.20;66.70
3268;DHT22;1646;52.450;13.326;2022-07-18T19:30:39;27.00;66.90
3268;DHT22;1646;52.450;13.326;2022-07-18T19:35:37;26.80;67.10
3268;DHT22;1646;52.450;13.326;2022-07-18T19:40:35;26.60;66.70
3268;DHT22;1646;52.450;13.326;2022-07-18T19:45:33;26.40;67.70
3268;DHT22;1646;52.450;13.326;2022-07-18T19:50:33;26.20;68.20
3268;DHT22;1646;52.450;13.326;2022-07-18T19:55:31;26.00;68.20
3268;DHT22;1646;52.450;13.326;2022-07-18T20:00:29;25.80;68.80
3268;DHT22;1646;52.450;13.326;2022-07-18T20:05:28;25.60;69.70
3268;DHT22;1646;52.450;13.326;2022-07-18T20:10:28;25.50;70.20
3268;DHT22;1646;52.450;13.326;2022-07-18T20:15:27;25.20;70.20
3268;DHT22;1646;52.450;13.326;2022-07-18T20:20:26;25.10;71.10
3268;DHT22;1646;52.450;13.326;2022-07-18T20:25:24;25.00;71.40
3268;DHT22;1646;52.450;13.326;2022-07-18T20:30:24;24.90;72.20
3268;DHT22;1646;52.450;13.326;2022-07-18T20:35:22;24.80;72.60
3268;DHT22;1646;52.450;13.326;2022-07-18T20:40:20;24.60;72.40
3268;DHT22;1646;52.450;13.326;2022-07-18T20:45:19;24.50;73.80
3268;DHT22;1646;52.450;13.326;2022-07-18T20:50:21;24.40;73.80
3268;DHT22;1646;52.450;13.326;2022-07-18T20:55:20;24.30;74.40
3268;DHT22;1646;52.450;13.326;2022-07-18T21:00:19;24.20;74.70
3268;DHT22;1646;52.450;13.326;2022-07-18T21:05:17;24.20;75.30
3268;DHT22;1646;52.450;13.326;2022-07-18T21:10:17;24.10;75.70
3268;DHT22;1646;52.450;13.326;2022-07-18T21:15:15;23.90;76.70
3268;DHT22;1646;52.450;13.326;2022-07-18T21:20:16;23.90;76.70
3268;DHT22;1646;52.450;13.326;2022-07-18T21:25:17;23.80;77.70
3268;DHT22;1646;52.450;13.326;2022-07-18T21:30:16;23.70;77.80
3268;DHT22;1646;52.450;13.326;2022-07-18T21:35:15;23.60;78.30
3268;DHT22;1646;52.450;13.326;2022-07-18T21:40:14;23.50;78.00
3268;DHT22;1646;52.450;13.326;2022-07-18T21:45:13;23.50;79.10
3268;DHT22;1646;52.450;13.326;2022-07-18T21:50:12;23.40;79.30
3268;DHT22;1646;52.450;13.326;2022-07-18T21:55:11;23.30;79.30
3268;DHT22;1646;52.450;13.326;2022-07-18T22:00:13;23.20;80.10
3268;DHT22;1646;52.450;13.326;2022-07-18T22:05:11;23.10;80.30
3268;DHT22;1646;52.450;13.326;2022-07-18T22:10:10;23.10;80.60
3268;DHT22;1646;52.450;13.326;2022-07-18T22:15:09;23.00;81.40
3268;DHT22;1646;52.450;13.326;2022-07-18T22:20:11;23.00;81.30
3268;DHT22;1646;52.450;13.326;2022-07-18T22:25:10;22.90;81.50
3268;DHT22;1646;52.450;13.326;2022-07-18T22:30:10;22.80;81.90
3268;DHT22;1646;52.450;13.326;2022-07-18T22:35:10;22.70;81.70
3268;DHT22;1646;52.450;13.326;2022-07-18T22:40:11;22.70;82.50
3268;DHT22;1646;52.450;13.326;2022-07-18T22:45:11;22.60;82.20
3268;DHT22;1646;52.450;13.326;2022-07-18T22:50:11;22.50;83.00
3268;DHT22;1646;52.450;13.326;2022-07-18T22:55:09;22.50;82.90
3268;DHT22;1646;52.450;13.326;2022-07-18T23:00:09;22.40;84.00
3268;DHT22;1646;52.450;13.326;2022-07-18T23:05:11;22.30;84.60
3268;DHT22;1646;52.450;13.326;2022-07-18T23:10:24;22.30;84.60
3268;DHT22;1646;52.450;13.326;2022-07-18T23:15:23;22.20;85.20
3268;DHT22;1646;52.450;13.326;2022-07-18T23:20:23;22.20;85.70
3268;DHT22;1646;52.450;13.326;2022-07-18T23:25:21;22.10;85.90
3268;DHT22;1646;52.450;13.326;2022-07-18T23:30:21;22.00;86.50
3268;DHT22;1646;52.450;13.326;2022-07-18T23:35:19;21.90;87.10
3268;DHT22;1646;52.450;13.326;2022-07-18T23:40:19;21.80;88.00
3268;DHT22;1646;52.450;13.326;2022-07-18T23:45:17;21.80;89.10
3268;DHT22;1646;52.450;13.326;2022-07-18T23:50:15;21.70;88.40
3268;DHT22;1646;52.450;13.326;2022-07-18T23:55:15;21.60;89.70
